createdAt,value
2022-10-09T00:01:06.465Z,2.08
2022-10-09T00:03:34.130Z,1.90
2022-10-09T00:06:00.865Z,2.35
2022-10-09T00:08:27.998Z,2.10
2022-10-09T00:10:54.935Z,2.35
2022-10-09T00:13:21.707Z,2.17
2022-10-09T00:15:48.416Z,1.90
2022-10-09T00:18:17.773Z,2.55
2022-10-09T00:20:46.395Z,2.72
2022-10-09T00:23:16.486Z,2.30
2022-10-09T00:25:58.436Z,2.00
2022-10-09T00:28:28.484Z,1.77
2022-10-09T00:30:55.822Z,2.47
2022-10-09T00:33:22.845Z,1.90
2022-10-09T00:35:49.876Z,2.40
2022-10-09T00:38:16.773Z,2.13
2022-10-09T00:40:44.042Z,2.65
2022-10-09T00:43:16.146Z,1.83
2022-10-09T00:45:52.545Z,2.53
2022-10-09T00:48:19.965Z,2.53
2022-10-09T00:50:57.611Z,2.15
2022-10-09T00:53:28.206Z,2.20
2022-10-09T00:55:55.321Z,1.95
2022-10-09T00:58:23.511Z,2.10
2022-10-09T01:00:50.272Z,1.90
2022-10-09T01:03:17.048Z,1.85
2022-10-09T01:05:49.603Z,1.95
2022-10-09T01:08:31.629Z,1.90
2022-10-09T01:11:13.310Z,2.25
2022-10-09T01:13:50.252Z,1.92
2022-10-09T01:16:25.762Z,2.28
2022-10-09T01:19:16.698Z,2.15
2022-10-09T01:22:18.903Z,2.30
2022-10-09T01:25:00.866Z,2.03
2022-10-09T01:27:29.012Z,2.05
2022-10-09T01:30:01.796Z,2.28
2022-10-09T01:32:33.629Z,2.15
2022-10-09T01:35:01.806Z,2.05
2022-10-09T01:37:30.852Z,2.03
2022-10-09T01:39:59.283Z,2.40
2022-10-09T01:42:28.702Z,2.20
2022-10-09T01:44:55.409Z,2.00
2022-10-09T01:47:22.552Z,2.03
2022-10-09T01:49:57.329Z,2.20
2022-10-09T01:52:41.556Z,3.05
2022-10-09T01:55:23.461Z,1.88
2022-10-09T01:58:12.231Z,1.90
2022-10-09T02:00:56.527Z,1.88
2022-10-09T02:03:25.840Z,1.90
2022-10-09T02:05:53.845Z,2.63
2022-10-09T02:08:23.482Z,3.00
2022-10-09T02:10:54.066Z,2.42
2022-10-09T02:13:21.342Z,2.45
2022-10-09T02:16:02.986Z,1.50
2022-10-09T02:18:39.748Z,2.60
2022-10-09T02:21:14.991Z,2.22
2022-10-09T02:23:44.241Z,2.50
2022-10-09T02:26:12.486Z,2.13
2022-10-09T02:28:45.139Z,1.92
2022-10-09T02:31:24.936Z,2.10
2022-10-09T02:33:58.957Z,2.15
2022-10-09T02:36:26.650Z,2.30
2022-10-09T02:38:55.295Z,2.75
2022-10-09T02:41:22.436Z,2.25
2022-10-09T02:43:49.431Z,2.40
2022-10-09T02:46:16.822Z,2.22
2022-10-09T02:48:43.991Z,2.63
2022-10-09T02:51:10.722Z,2.33
2022-10-09T02:53:37.433Z,1.80
2022-10-09T02:56:04.419Z,2.00
2022-10-09T02:58:32.447Z,2.75
2022-10-09T03:00:59.371Z,2.28
2022-10-09T03:03:26.645Z,2.42
2022-10-09T03:06:12.999Z,2.50
2022-10-09T03:08:42.296Z,2.05
2022-10-09T03:11:09.999Z,1.85
2022-10-09T03:13:37.673Z,2.25
2022-10-09T03:16:06.384Z,2.65
2022-10-09T03:18:33.279Z,2.75
2022-10-09T03:21:00.085Z,2.00
2022-10-09T03:23:27.041Z,1.80
2022-10-09T03:26:02.767Z,1.75
2022-10-09T03:28:29.826Z,2.00
2022-10-09T03:30:57.127Z,2.00
2022-10-09T03:33:23.894Z,2.08
2022-10-09T03:35:50.633Z,2.20
2022-10-09T03:38:17.426Z,2.35
2022-10-09T03:40:44.879Z,2.40
2022-10-09T03:43:11.611Z,1.90
2022-10-09T03:45:42.754Z,1.95
2022-10-09T03:50:40.907Z,1.50
2022-10-09T03:53:09.707Z,2.40
2022-10-09T03:55:36.666Z,2.53
2022-10-09T03:58:03.912Z,1.90
2022-10-09T04:00:31.026Z,3.55
2022-10-09T04:02:58.118Z,2.75
2022-10-09T04:05:25.197Z,3.05
2022-10-09T04:07:52.067Z,2.65
2022-10-09T04:10:18.919Z,2.63
2022-10-09T04:12:45.778Z,2.47
2022-10-09T04:15:12.610Z,3.33
2022-10-09T04:17:39.288Z,3.10
2022-10-09T04:20:06.347Z,3.17
2022-10-09T04:22:33.087Z,2.75
2022-10-09T04:24:59.777Z,3.58
2022-10-09T04:27:26.474Z,2.42
2022-10-09T04:29:53.197Z,4.20
2022-10-09T04:32:19.904Z,2.97
2022-10-09T04:34:46.618Z,2.40
2022-10-09T04:37:13.660Z,2.28
2022-10-09T04:39:40.621Z,2.58
2022-10-09T04:42:07.672Z,2.97
2022-10-09T04:44:34.351Z,2.47
2022-10-09T04:47:01.052Z,2.08
2022-10-09T04:49:27.791Z,2.88
2022-10-09T04:51:54.487Z,2.70
2022-10-09T04:54:21.278Z,2.25
2022-10-09T04:56:47.966Z,2.42
2022-10-09T04:59:14.780Z,2.60
2022-10-09T05:01:41.649Z,2.50
2022-10-09T05:04:08.757Z,2.45
2022-10-09T05:06:35.896Z,2.10
2022-10-09T05:09:03.023Z,2.53
2022-10-09T05:11:29.762Z,2.33
2022-10-09T05:13:58.039Z,1.40
2022-10-09T05:16:27.722Z,1.52
2022-10-09T05:18:56.662Z,2.28
2022-10-09T05:21:24.421Z,2.67
2022-10-09T05:23:52.827Z,1.58
2022-10-09T05:26:22.844Z,2.13
2022-10-09T05:28:50.301Z,2.20
2022-10-09T05:31:25.483Z,1.77
2022-10-09T05:33:52.859Z,2.13
2022-10-09T05:36:20.611Z,1.98
2022-10-09T05:38:47.610Z,1.90
2022-10-09T05:41:16.139Z,1.52
2022-10-09T05:43:46.653Z,2.10
2022-10-09T05:46:15.993Z,2.30
2022-10-09T05:48:45.149Z,2.30
2022-10-09T05:51:24.422Z,1.90
2022-10-09T05:53:51.737Z,1.80
2022-10-09T05:56:30.634Z,2.13
2022-10-09T05:59:00.256Z,2.45
2022-10-09T06:01:29.910Z,2.00
2022-10-09T06:03:58.802Z,2.22
2022-10-09T06:06:28.345Z,1.83
2022-10-09T06:08:55.922Z,2.33
2022-10-09T06:11:28.692Z,2.55
2022-10-09T06:13:56.622Z,1.73
2022-10-09T06:16:26.708Z,2.10
2022-10-09T06:18:54.889Z,2.33
2022-10-09T06:21:22.250Z,2.35
2022-10-09T06:23:50.731Z,2.70
2022-10-09T06:26:18.797Z,2.53
2022-10-09T06:28:46.169Z,2.75
2022-10-09T06:31:21.512Z,2.17
2022-10-09T06:33:49.901Z,2.70
2022-10-09T06:36:23.047Z,2.20
2022-10-09T06:38:50.573Z,1.85
2022-10-09T06:41:19.586Z,2.03
2022-10-09T06:43:56.804Z,1.88
2022-10-09T06:46:29.721Z,2.30
2022-10-09T06:48:58.078Z,2.53
2022-10-09T06:51:24.946Z,2.35
2022-10-09T06:53:53.565Z,2.65
2022-10-09T06:56:23.028Z,2.58
2022-10-09T06:58:49.878Z,2.22
2022-10-09T07:01:19.641Z,3.22
2022-10-09T07:03:52.597Z,3.17
2022-10-09T07:06:22.952Z,3.08
2022-10-09T07:08:53.232Z,2.78
2022-10-09T07:11:25.175Z,3.08
2022-10-09T07:13:55.526Z,2.67
2022-10-09T07:16:24.859Z,2.97
2022-10-09T07:18:52.074Z,3.20
2022-10-09T07:21:19.624Z,2.97
2022-10-09T07:23:46.527Z,2.75
2022-10-09T07:26:20.133Z,4.00
2022-10-09T07:28:48.076Z,3.30
2022-10-09T07:31:15.674Z,3.60
2022-10-09T07:33:42.710Z,3.10
2022-10-09T07:36:10.762Z,3.08
2022-10-09T07:38:37.757Z,2.90
2022-10-09T07:41:07.450Z,2.85
2022-10-09T07:43:38.983Z,3.15
2022-10-09T07:46:07.350Z,2.30
2022-10-09T07:48:35.513Z,2.53
2022-10-09T07:51:09.665Z,3.22
2022-10-09T07:53:36.994Z,2.08
2022-10-09T07:56:04.545Z,2.75
2022-10-09T07:58:31.753Z,3.00
2022-10-09T08:01:07.559Z,2.50
2022-10-09T08:03:35.427Z,2.95
2022-10-09T08:06:02.786Z,2.25
2022-10-09T08:08:29.532Z,2.42
2022-10-09T08:10:56.317Z,2.72
2022-10-09T08:13:23.136Z,2.92
2022-10-09T08:15:49.965Z,3.22
2022-10-09T08:18:16.814Z,2.33
2022-10-09T08:20:43.888Z,2.40
2022-10-09T08:23:10.593Z,2.78
2022-10-09T08:25:38.100Z,2.58
2022-10-09T08:28:05.208Z,3.55
2022-10-09T08:30:32.073Z,2.97
2022-10-09T08:32:58.822Z,2.97
2022-10-09T08:35:25.591Z,1.95
2022-10-09T08:37:52.518Z,2.25
2022-10-09T08:40:29.206Z,2.22
2022-10-09T08:43:04.915Z,3.00
2022-10-09T08:45:34.954Z,2.42
2022-10-09T08:48:07.517Z,3.30
2022-10-09T08:50:38.611Z,2.80
2022-10-09T08:55:50.003Z,2.90
2022-10-09T08:58:19.332Z,2.13
2022-10-09T09:00:52.195Z,3.00
2022-10-09T09:04:01.436Z,2.58
2022-10-09T09:06:55.327Z,3.97
2022-10-09T09:09:45.323Z,3.75
2022-10-09T09:12:38.488Z,3.53
2022-10-09T09:15:26.495Z,4.30
2022-10-09T09:18:20.676Z,8.13
2022-10-09T09:20:53.325Z,4.22
2022-10-09T09:23:29.609Z,2.58
2022-10-09T09:25:58.168Z,3.00
2022-10-09T09:28:30.498Z,2.75
2022-10-09T09:31:06.650Z,2.30
2022-10-09T09:33:53.690Z,2.22
2022-10-09T09:36:33.928Z,2.85
2022-10-09T09:41:47.992Z,1.90
2022-10-09T09:44:17.253Z,1.60
2022-10-09T09:46:46.319Z,1.70
2022-10-09T09:49:21.984Z,1.92
2022-10-09T09:51:49.718Z,1.50
2022-10-09T09:54:23.518Z,1.48
2022-10-09T09:57:11.901Z,1.92
2022-10-09T09:59:43.135Z,1.88
2022-10-09T10:02:19.801Z,1.90
2022-10-09T10:04:59.931Z,1.50
2022-10-09T10:07:32.344Z,1.73
2022-10-09T10:10:13.198Z,1.90
2022-10-09T10:12:53.368Z,2.13
2022-10-09T10:15:23.705Z,1.80
2022-10-09T10:18:00.686Z,1.25
2022-10-09T10:20:29.581Z,1.40
2022-10-09T10:22:57.609Z,1.50
2022-10-09T10:25:29.945Z,1.30
2022-10-09T10:28:13.025Z,1.75
2022-10-09T10:30:41.637Z,1.40
2022-10-09T10:33:19.085Z,1.20
2022-10-09T10:35:49.542Z,2.17
2022-10-09T10:38:30.249Z,1.48
2022-10-09T10:41:42.622Z,2.85
2022-10-09T10:44:41.582Z,1.92
2022-10-09T10:47:17.572Z,1.15
2022-10-09T10:49:44.407Z,1.50
2022-10-09T10:52:36.146Z,13.68
2022-10-09T10:55:26.765Z,9.43
2022-10-09T10:58:30.090Z,2.63
2022-10-09T11:01:08.628Z,1.50
2022-10-09T11:03:50.125Z,1.25
2022-10-09T11:06:34.104Z,0.95
2022-10-09T11:09:09.759Z,1.10
2022-10-09T11:12:08.258Z,1.10
2022-10-09T11:15:01.106Z,1.13
2022-10-09T11:17:36.995Z,1.38
2022-10-09T11:20:12.682Z,1.20
2022-10-09T11:22:47.127Z,1.42
2022-10-09T11:25:26.277Z,1.63
2022-10-09T11:28:01.813Z,1.33
2022-10-09T11:30:33.600Z,2.10
2022-10-09T11:33:30.612Z,6.22
2022-10-09T11:36:04.804Z,3.35
2022-10-09T11:38:59.350Z,1.58
2022-10-09T11:41:27.498Z,1.08
2022-10-09T11:44:18.303Z,1.20
2022-10-09T11:47:09.903Z,1.52
2022-10-09T11:50:07.675Z,10.15
2022-10-09T11:52:43.335Z,6.78
2022-10-09T11:55:21.243Z,2.30
2022-10-09T11:57:48.584Z,1.27
2022-10-09T12:00:16.853Z,0.93
2022-10-09T12:02:44.275Z,1.25
2022-10-09T12:05:44.938Z,1.15
2022-10-09T12:08:19.195Z,1.13
2022-10-09T12:11:00.069Z,0.95
2022-10-09T12:13:41.859Z,1.13
2022-10-09T12:16:29.287Z,1.15
2022-10-09T12:18:58.259Z,5.03
2022-10-09T12:21:29.055Z,9.63
2022-10-09T12:23:56.058Z,2.90
2022-10-09T12:26:24.877Z,1.45
2022-10-09T12:29:01.439Z,0.98
2022-10-09T12:31:33.167Z,1.17
2022-10-09T12:34:20.891Z,1.10
2022-10-09T12:36:47.704Z,1.58
2022-10-09T12:39:24.479Z,3.95
2022-10-09T12:41:55.087Z,2.90
2022-10-09T12:44:30.241Z,2.50
2022-10-09T12:47:06.233Z,1.92
2022-10-09T12:49:33.289Z,1.52
2022-10-09T12:52:01.369Z,1.35
2022-10-09T12:54:31.128Z,1.40
2022-10-09T12:56:59.560Z,1.30
2022-10-09T12:59:28.590Z,1.17
2022-10-09T13:01:59.891Z,0.85
2022-10-09T13:04:34.029Z,1.02
2022-10-09T13:07:06.717Z,0.80
2022-10-09T13:09:39.360Z,2.03
2022-10-09T13:12:22.655Z,2.38
2022-10-09T13:14:57.133Z,2.00
2022-10-09T13:17:37.540Z,1.60
2022-10-09T13:20:16.327Z,1.60
2022-10-09T13:22:55.172Z,0.95
2022-10-09T13:25:23.278Z,1.27
2022-10-09T13:27:50.418Z,0.90
2022-10-09T13:30:17.551Z,1.23
2022-10-09T13:32:44.539Z,1.00
2022-10-09T13:35:11.223Z,0.90
2022-10-09T13:37:37.979Z,1.10
2022-10-09T13:40:05.830Z,1.00
2022-10-09T13:42:36.966Z,0.90
2022-10-09T13:45:07.214Z,1.00
2022-10-09T13:47:34.018Z,0.80
2022-10-09T13:50:00.723Z,1.20
2022-10-09T13:52:27.468Z,1.45
2022-10-09T13:54:54.399Z,2.88
2022-10-09T13:57:21.122Z,1.60
2022-10-09T13:59:47.862Z,1.80
2022-10-09T14:02:14.639Z,16.65
2022-10-09T14:04:41.660Z,8.75
2022-10-09T14:07:08.510Z,1.77
2022-10-09T14:09:35.235Z,1.25
2022-10-09T14:12:02.008Z,1.25
2022-10-09T14:14:28.740Z,0.82
2022-10-09T14:16:55.465Z,1.10
2022-10-09T14:19:27.168Z,1.10
2022-10-09T14:21:55.194Z,1.00
2022-10-09T14:24:22.032Z,1.15
2022-10-09T14:26:51.661Z,1.00
2022-10-09T14:29:18.631Z,1.00
2022-10-09T14:31:45.684Z,1.05
2022-10-09T14:34:15.619Z,0.82
2022-10-09T14:36:42.426Z,1.13
2022-10-09T14:39:09.302Z,0.90
2022-10-09T14:41:37.895Z,0.95
2022-10-09T14:44:05.700Z,0.88
2022-10-09T14:46:37.636Z,1.17
2022-10-09T14:49:07.853Z,1.00
2022-10-09T14:51:37.296Z,0.98
2022-10-09T14:54:05.657Z,0.93
2022-10-09T14:56:32.483Z,0.73
2022-10-09T14:59:02.651Z,1.08
2022-10-09T15:01:29.681Z,1.67
2022-10-09T15:03:56.983Z,1.52
2022-10-09T15:06:24.206Z,1.80
2022-10-09T15:08:54.061Z,1.02
2022-10-09T15:11:20.774Z,0.93
2022-10-09T15:13:47.574Z,0.80
2022-10-09T15:16:16.543Z,1.10
2022-10-09T15:18:44.324Z,1.65
2022-10-09T15:21:13.447Z,2.08
2022-10-09T15:23:40.555Z,2.47
2022-10-09T15:26:08.335Z,1.20
2022-10-09T15:28:36.645Z,1.08
2022-10-09T15:31:05.821Z,0.70
2022-10-09T15:33:33.350Z,1.20
2022-10-09T15:36:00.332Z,1.45
2022-10-09T15:38:27.247Z,1.20
2022-10-09T15:40:55.987Z,1.50
2022-10-09T15:43:25.577Z,2.05
2022-10-09T15:45:54.162Z,3.50
2022-10-09T15:48:23.758Z,3.15
2022-10-09T15:50:53.467Z,1.60
2022-10-09T15:53:23.356Z,2.85
2022-10-09T15:55:52.831Z,1.40
2022-10-09T15:58:20.420Z,1.23
2022-10-09T16:00:49.969Z,1.30
2022-10-09T16:03:18.808Z,1.15
2022-10-09T16:05:48.768Z,1.20
2022-10-09T16:08:17.207Z,1.25
2022-10-09T16:10:49.377Z,1.50
2022-10-09T16:13:16.614Z,1.17
2022-10-09T16:15:44.916Z,1.20
2022-10-09T16:18:11.757Z,1.20
2022-10-09T16:20:39.308Z,1.17
2022-10-09T16:23:06.996Z,1.23
2022-10-09T16:25:33.910Z,1.23
2022-10-09T16:28:00.889Z,1.10
2022-10-09T16:30:28.258Z,1.25
2022-10-09T16:32:55.071Z,1.23
2022-10-09T16:35:22.493Z,1.33
2022-10-09T16:37:51.735Z,1.20
2022-10-09T16:40:18.492Z,1.23
2022-10-09T16:42:45.197Z,1.20
2022-10-09T16:45:11.949Z,1.08
2022-10-09T16:47:40.343Z,1.05
2022-10-09T16:50:07.828Z,1.13
2022-10-09T16:52:34.551Z,1.27
2022-10-09T16:55:01.680Z,2.22
2022-10-09T16:57:28.449Z,1.90
2022-10-09T16:59:55.194Z,1.33
2022-10-09T17:02:21.950Z,1.10
2022-10-09T17:04:48.631Z,1.88
2022-10-09T17:07:15.327Z,3.50
2022-10-09T17:09:42.963Z,2.75
2022-10-09T17:12:12.874Z,1.60
2022-10-09T17:14:40.678Z,1.20
2022-10-09T17:17:09.600Z,0.90
2022-10-09T17:19:36.817Z,1.23
2022-10-09T17:22:04.398Z,0.90
2022-10-09T17:24:31.581Z,0.98
2022-10-09T17:26:59.089Z,1.27
2022-10-09T17:29:26.101Z,1.10
2022-10-09T17:31:53.021Z,1.48
2022-10-09T17:34:19.739Z,1.60
2022-10-09T17:36:46.643Z,2.00
2022-10-09T17:39:15.856Z,1.45
2022-10-09T17:41:45.719Z,1.35
2022-10-09T17:44:13.018Z,1.08
2022-10-09T17:46:39.729Z,1.30
2022-10-09T17:49:06.478Z,1.13
2022-10-09T17:51:39.587Z,1.23
2022-10-09T17:54:12.081Z,1.33
2022-10-09T17:56:39.363Z,0.85
2022-10-09T17:59:07.194Z,1.00
2022-10-09T18:01:34.114Z,1.10
2022-10-09T18:04:01.335Z,1.38
2022-10-09T18:06:31.704Z,1.25
2022-10-09T18:08:58.466Z,1.38
2022-10-09T18:11:26.879Z,0.80
2022-10-09T18:13:54.393Z,1.40
2022-10-09T18:16:35.272Z,1.33
2022-10-09T18:19:11.185Z,0.90
2022-10-09T18:21:44.744Z,1.95
2022-10-09T18:24:12.430Z,1.80
2022-10-09T18:26:40.030Z,1.40
2022-10-09T18:29:07.124Z,1.20
2022-10-09T18:31:34.490Z,1.38
2022-10-09T18:34:01.646Z,1.67
2022-10-09T18:36:31.684Z,1.40
2022-10-09T18:39:02.703Z,1.90
2022-10-09T18:43:59.854Z,1.42
2022-10-09T18:46:29.770Z,1.67
2022-10-09T18:48:56.683Z,1.40
2022-10-09T18:51:26.820Z,1.38
2022-10-09T18:53:58.035Z,1.43
2022-10-09T18:56:25.107Z,1.63
2022-10-09T18:58:53.045Z,2.00
2022-10-09T19:01:20.169Z,1.67
2022-10-09T19:03:49.970Z,2.03
2022-10-09T19:06:19.217Z,1.95
2022-10-09T19:08:46.310Z,1.92
2022-10-09T19:11:14.401Z,1.80
2022-10-09T19:13:43.042Z,2.28
2022-10-09T19:16:10.502Z,1.98
2022-10-09T19:18:37.982Z,1.58
2022-10-09T19:21:04.949Z,2.00
2022-10-09T19:23:32.031Z,2.10
2022-10-09T19:25:59.806Z,2.28
2022-10-09T19:28:30.936Z,2.10
2022-10-09T19:30:57.918Z,2.40
2022-10-09T19:33:25.097Z,2.50
2022-10-09T19:35:54.022Z,2.22
2022-10-09T19:38:21.800Z,1.88
2022-10-09T19:40:49.339Z,2.47
2022-10-09T19:43:17.631Z,32.55
2022-10-09T19:45:44.946Z,20.88
2022-10-09T19:48:11.900Z,28.38
2022-10-09T19:50:43.154Z,14.73
2022-10-09T19:53:10.876Z,5.50
2022-10-09T19:55:38.765Z,2.92
2022-10-09T19:58:06.598Z,2.15
2022-10-09T20:00:33.362Z,2.10
2022-10-09T20:03:00.198Z,1.77
2022-10-09T20:05:27.051Z,1.65
2022-10-09T20:07:53.798Z,2.10
2022-10-09T20:10:20.517Z,1.92
2022-10-09T20:12:47.522Z,6.90
2022-10-09T20:15:14.619Z,13.70
2022-10-09T20:17:41.472Z,29.70
2022-10-09T20:20:08.674Z,13.43
2022-10-09T20:22:35.374Z,4.13
2022-10-09T20:25:02.313Z,11.13
2022-10-09T20:27:30.419Z,6.22
2022-10-09T20:29:57.260Z,4.20
2022-10-09T20:32:26.884Z,3.05
2022-10-09T20:34:53.810Z,2.55
2022-10-09T20:37:20.574Z,2.63
2022-10-09T20:39:47.404Z,1.70
2022-10-09T20:42:14.242Z,1.92
2022-10-09T20:44:42.360Z,2.08
2022-10-09T20:47:09.237Z,2.22
2022-10-09T20:49:35.958Z,2.03
2022-10-09T20:52:02.774Z,1.83
2022-10-09T20:54:30.387Z,1.60
2022-10-09T20:56:57.264Z,1.77
2022-10-09T20:59:24.101Z,1.42
2022-10-09T21:01:50.859Z,1.70
2022-10-09T21:04:17.609Z,1.38
2022-10-09T21:06:44.448Z,2.00
2022-10-09T21:09:11.224Z,1.80
2022-10-09T21:11:39.855Z,1.50
2022-10-09T21:14:07.077Z,1.98
2022-10-09T21:16:33.943Z,2.58
2022-10-09T21:19:03.645Z,1.95
2022-10-09T21:21:31.196Z,2.00
2022-10-09T21:23:59.187Z,1.35
2022-10-09T21:26:27.145Z,1.52
2022-10-09T21:28:59.000Z,1.38
2022-10-09T21:31:28.890Z,1.90
2022-10-09T21:33:56.606Z,1.48
2022-10-09T21:39:32.738Z,1.27
2022-10-09T21:41:59.607Z,1.70
2022-10-09T21:44:26.397Z,1.90
2022-10-09T21:46:53.091Z,1.40
2022-10-09T21:49:22.993Z,1.58
2022-10-09T21:51:50.595Z,1.40
2022-10-09T21:54:17.601Z,1.60
2022-10-09T21:56:44.624Z,1.50
2022-10-09T21:59:11.385Z,1.90
2022-10-09T22:01:38.679Z,1.40
2022-10-09T22:04:05.475Z,1.80
2022-10-09T22:06:32.236Z,1.50
2022-10-09T22:08:59.874Z,1.52
2022-10-09T22:11:26.660Z,1.55
2022-10-09T22:13:55.639Z,1.67
2022-10-09T22:16:22.473Z,1.85
2022-10-09T22:18:49.297Z,1.60
2022-10-09T22:21:16.838Z,1.73
2022-10-09T22:23:43.674Z,1.63
2022-10-09T22:26:14.216Z,1.40
2022-10-09T22:28:41.197Z,1.65
2022-10-09T22:31:20.941Z,1.30
2022-10-09T22:33:56.706Z,1.35
2022-10-09T22:36:26.225Z,1.42
2022-10-09T22:38:54.669Z,1.55
2022-10-09T22:41:23.342Z,1.50
2022-10-09T22:43:52.844Z,1.48
2022-10-09T22:46:28.558Z,1.50
2022-10-09T22:48:55.593Z,1.58
2022-10-09T22:51:24.114Z,1.50
2022-10-09T22:53:50.898Z,1.50
2022-10-09T22:56:23.533Z,1.60
2022-10-09T22:58:52.937Z,1.40
2022-10-09T23:01:30.276Z,1.83
2022-10-09T23:03:58.379Z,1.52
2022-10-09T23:06:25.368Z,1.50
2022-10-09T23:08:52.298Z,1.40
2022-10-09T23:11:21.364Z,1.25
2022-10-09T23:13:54.062Z,2.20
2022-10-09T23:16:21.228Z,2.03
2022-10-09T23:18:51.167Z,1.98
2022-10-09T23:21:22.971Z,1.80
2022-10-09T23:23:50.766Z,1.92
2022-10-09T23:26:20.816Z,1.85
2022-10-09T23:28:52.579Z,1.77
2022-10-09T23:31:19.432Z,2.00
2022-10-09T23:33:46.373Z,1.70
2022-10-09T23:36:16.648Z,1.70
2022-10-09T23:38:44.025Z,1.88
2022-10-09T23:41:16.930Z,1.95
2022-10-09T23:43:44.318Z,1.55
2022-10-09T23:46:14.348Z,2.03
2022-10-09T23:48:41.546Z,1.92
2022-10-09T23:51:08.814Z,2.08
2022-10-09T23:53:35.863Z,1.52
2022-10-09T23:56:24.459Z,1.73
2022-10-09T23:58:51.832Z,1.73
